createdAt,value
2018-04-15T00:00:38.149Z,6.16
2018-04-15T00:01:38.189Z,6.24
2018-04-15T00:02:38.115Z,6.16
2018-04-15T00:03:38.140Z,6.18
2018-04-15T00:04:38.071Z,6.11
2018-04-15T00:05:38.054Z,6.05
2018-04-15T00:06:38.040Z,6.09
2018-04-15T00:07:38.016Z,6.12
2018-04-15T00:08:37.997Z,6.16
2018-04-15T00:09:38.076Z,6.21
2018-04-15T00:10:37.959Z,6.21
2018-04-15T00:11:37.937Z,6.32
2018-04-15T00:12:37.925Z,6.42
2018-04-15T00:13:37.898Z,6.53
2018-04-15T00:14:37.880Z,6.49
2018-04-15T00:15:37.907Z,6.60
2018-04-15T00:16:37.889Z,6.61
2018-04-15T00:17:37.817Z,6.47
2018-04-15T00:18:37.801Z,6.53
2018-04-15T00:19:37.782Z,6.55
2018-04-15T00:20:37.761Z,6.52
2018-04-15T00:21:37.812Z,6.50
2018-04-15T00:22:37.722Z,6.49
2018-04-15T00:23:37.707Z,6.57
2018-04-15T00:24:37.688Z,6.53
2018-04-15T00:25:37.670Z,6.56
2018-04-15T00:26:37.650Z,6.60
2018-04-15T00:27:37.685Z,6.50
2018-04-15T00:28:37.714Z,6.52
2018-04-15T00:29:37.595Z,6.56
2018-04-15T00:30:37.576Z,6.61
2018-04-15T00:31:37.569Z,6.53
2018-04-15T00:33:37.570Z,6.63
2018-04-15T00:34:37.497Z,6.65
2018-04-15T00:35:37.487Z,6.63
2018-04-15T00:36:37.458Z,6.61
2018-04-15T00:37:37.590Z,6.52
2018-04-15T00:38:37.428Z,6.60
2018-04-15T00:39:37.398Z,6.55
2018-04-15T00:40:37.385Z,6.50
2018-04-15T00:41:37.363Z,6.53
2018-04-15T00:42:37.343Z,6.55
2018-04-15T00:43:37.455Z,6.53
2018-04-15T00:44:37.311Z,6.43
2018-04-15T00:45:37.293Z,6.46
2018-04-15T00:46:37.272Z,6.45
2018-04-15T00:47:37.248Z,6.47
2018-04-15T00:48:37.228Z,6.37
2018-04-15T00:49:37.260Z,6.31
2018-04-15T00:50:37.194Z,6.34
2018-04-15T00:51:37.168Z,6.34
2018-04-15T00:52:37.154Z,6.19
2018-04-15T00:53:37.135Z,6.31
2018-04-15T00:54:37.114Z,6.21
2018-04-15T00:55:37.151Z,6.16
2018-04-15T00:56:37.081Z,6.24
2018-04-15T00:57:37.061Z,6.18
2018-04-15T00:58:37.037Z,6.21
2018-04-15T00:59:37.017Z,6.24
2018-04-15T01:00:37.001Z,6.21
2018-04-15T01:01:37.031Z,6.16
2018-04-15T01:02:37.013Z,6.16
2018-04-15T01:03:36.957Z,6.19
2018-04-15T01:04:36.922Z,6.13
2018-04-15T01:05:36.917Z,6.19
2018-04-15T01:06:36.934Z,6.13
2018-04-15T01:07:36.917Z,6.13
2018-04-15T01:08:36.848Z,6.11
2018-04-15T01:09:36.826Z,6.12
2018-04-15T01:10:36.811Z,6.11
2018-04-15T01:11:36.791Z,6.05
2018-04-15T01:12:36.777Z,6.08
2018-04-15T01:13:36.809Z,6.08
2018-04-15T01:14:36.790Z,6.09
2018-04-15T01:15:36.724Z,6.05
2018-04-15T01:16:37.394Z,5.98
2018-04-15T01:17:36.729Z,6.03
2018-04-15T01:18:36.659Z,6.00
2018-04-15T01:19:36.635Z,5.93
2018-04-15T01:20:36.614Z,5.95
2018-04-15T01:21:36.594Z,5.98
2018-04-15T01:22:36.577Z,5.82
2018-04-15T01:23:36.615Z,5.82
2018-04-15T01:24:36.545Z,5.85
2018-04-15T01:26:36.805Z,5.93
2018-04-15T01:27:36.479Z,5.93
2018-04-15T01:28:36.476Z,5.87
2018-04-15T01:29:36.491Z,5.77
2018-04-15T01:30:36.420Z,5.76
2018-04-15T01:32:36.381Z,5.79
2018-04-15T01:33:36.366Z,5.76
2018-04-15T01:34:36.346Z,5.79
2018-04-15T01:35:36.427Z,5.80
2018-04-15T01:36:36.615Z,5.84
2018-04-15T01:37:36.336Z,5.67
2018-04-15T01:38:36.270Z,5.75
2018-04-15T01:39:36.245Z,5.73
2018-04-15T01:40:36.227Z,5.76
2018-04-15T01:42:36.343Z,5.80
2018-04-15T01:43:36.166Z,5.80
2018-04-15T01:44:36.149Z,5.87
2018-04-15T01:45:36.127Z,5.84
2018-04-15T01:46:36.111Z,5.90
2018-04-15T01:47:36.090Z,5.85
2018-04-15T01:48:36.425Z,5.77
2018-04-15T01:49:36.049Z,5.85
2018-04-15T01:50:36.332Z,5.79
2018-04-15T01:51:36.012Z,5.76
2018-04-15T01:52:36.001Z,5.61
2018-04-15T01:53:35.970Z,5.62
2018-04-15T01:54:36.710Z,5.75
2018-04-15T01:55:35.932Z,5.72
2018-04-15T01:56:35.911Z,5.65
2018-04-15T01:57:35.891Z,5.70
2018-04-15T01:58:35.876Z,5.59
2018-04-15T01:59:35.857Z,5.65
2018-04-15T02:00:35.934Z,5.57
2018-04-15T02:01:36.115Z,5.57
2018-04-15T02:02:35.795Z,5.59
2018-04-15T02:03:35.778Z,5.57
2018-04-15T02:04:35.758Z,5.50
2018-04-15T02:05:35.740Z,5.40
2018-04-15T02:06:35.769Z,5.39
2018-04-15T02:07:35.725Z,5.34
2018-04-15T02:08:35.679Z,5.32
2018-04-15T02:09:35.662Z,5.24
2018-04-15T02:10:35.638Z,5.29
2018-04-15T02:11:35.628Z,5.32
2018-04-15T02:12:35.653Z,5.34
2018-04-15T02:13:35.734Z,5.30
2018-04-15T02:14:35.560Z,5.29
2018-04-15T02:15:35.544Z,5.32
2018-04-15T02:16:35.527Z,5.29
2018-04-15T02:17:35.503Z,5.19
2018-04-15T02:18:35.483Z,5.24
2018-04-15T02:19:35.516Z,5.19
2018-04-15T02:20:35.441Z,5.21
2018-04-15T02:21:35.423Z,5.21
2018-04-15T02:22:35.406Z,5.16
2018-04-15T02:23:35.486Z,5.25
2018-04-15T02:24:35.365Z,5.29
2018-04-15T02:25:35.395Z,5.32
2018-04-15T02:26:35.326Z,5.37
2018-04-15T02:27:35.758Z,5.34
2018-04-15T02:28:35.297Z,5.21
2018-04-15T02:29:35.267Z,5.29
2018-04-15T02:30:35.256Z,5.39
2018-04-15T02:31:35.227Z,5.36
2018-04-15T02:32:35.214Z,5.34
2018-04-15T02:33:35.240Z,5.40
2018-04-15T02:34:35.170Z,5.39
2018-04-15T02:35:35.146Z,5.48
2018-04-15T02:36:35.128Z,5.41
2018-04-15T02:37:35.110Z,5.43
2018-04-15T02:38:35.099Z,5.50
2018-04-15T02:39:35.119Z,5.44
2018-04-15T02:40:35.050Z,5.44
2018-04-15T02:42:35.362Z,5.51
2018-04-15T02:43:34.989Z,5.59
2018-04-15T02:44:34.970Z,5.55
2018-04-15T02:45:34.952Z,5.55
2018-04-15T02:46:35.031Z,5.58
2018-04-15T02:47:34.909Z,5.61
2018-04-15T02:48:34.946Z,5.52
2018-04-15T02:49:34.879Z,5.66
2018-04-15T02:50:34.861Z,5.65
2018-04-15T02:51:34.832Z,5.57
2018-04-15T02:52:34.811Z,5.58
2018-04-15T02:53:34.793Z,5.54
2018-04-15T02:54:34.823Z,5.61
2018-04-15T02:55:34.752Z,5.51
2018-04-15T02:56:34.734Z,5.57
2018-04-15T02:57:34.717Z,5.50
2018-04-15T02:58:34.745Z,5.50
2018-04-15T02:59:34.672Z,5.44
2018-04-15T03:00:34.753Z,5.47
2018-04-15T03:01:34.640Z,5.39
2018-04-15T03:02:34.613Z,5.47
2018-04-15T03:03:34.615Z,5.50
2018-04-15T03:04:34.625Z,5.40
2018-04-15T03:05:34.579Z,5.44
2018-04-15T03:06:34.535Z,5.47
2018-04-15T03:07:34.525Z,5.36
2018-04-15T03:08:34.503Z,5.37
2018-04-15T03:09:34.474Z,5.40
2018-04-15T03:10:34.508Z,5.47
2018-04-15T03:11:34.443Z,5.39
2018-04-15T03:12:34.417Z,5.30
2018-04-15T03:13:34.397Z,5.36
2018-04-15T03:14:34.379Z,5.41
2018-04-15T03:15:34.355Z,5.37
2018-04-15T03:16:34.391Z,5.39
2018-04-15T03:17:34.320Z,5.37
2018-04-15T03:18:34.348Z,5.36
2018-04-15T03:19:34.280Z,5.43
2018-04-15T03:20:34.261Z,5.36
2018-04-15T03:22:34.219Z,5.34
2018-04-15T03:23:34.203Z,5.41
2018-04-15T03:24:34.628Z,5.47
2018-04-15T03:25:34.172Z,5.50
2018-04-15T03:26:34.158Z,5.44
2018-04-15T03:27:34.120Z,5.36
2018-04-15T03:28:34.119Z,5.39
2018-04-15T03:29:34.120Z,5.50
2018-04-15T03:30:34.130Z,5.44
2018-04-15T03:31:34.044Z,5.43
2018-04-15T03:33:34.009Z,5.44
2018-04-15T03:34:33.988Z,5.50
2018-04-15T03:35:34.084Z,5.44
2018-04-15T03:36:34.001Z,5.50
2018-04-15T03:37:33.938Z,5.55
2018-04-15T03:38:33.903Z,5.59
2018-04-15T03:39:34.780Z,5.55
2018-04-15T03:40:33.912Z,5.57
2018-04-15T03:41:33.904Z,5.54
2018-04-15T03:42:33.831Z,5.67
2018-04-15T03:43:33.811Z,5.65
2018-04-15T03:44:35.821Z,5.61
2018-04-15T03:45:33.762Z,5.58
2018-04-15T03:46:33.804Z,5.65
2018-04-15T03:47:33.774Z,5.62
2018-04-15T03:48:33.711Z,5.58
2018-04-15T03:49:34.223Z,5.59
2018-04-15T03:50:33.668Z,5.52
2018-04-15T03:51:33.645Z,5.55
2018-04-15T03:52:33.627Z,5.52
2018-04-15T03:53:33.658Z,5.57
2018-04-15T03:54:33.585Z,5.57
2018-04-15T03:55:33.622Z,5.62
2018-04-15T03:56:33.559Z,5.65
2018-04-15T03:57:33.635Z,5.65
2018-04-15T03:58:33.516Z,5.70
2018-04-15T03:59:33.541Z,5.73
2018-04-15T04:00:33.471Z,5.77
2018-04-15T04:01:33.484Z,5.75
2018-04-15T04:02:33.454Z,5.67
2018-04-15T04:03:33.414Z,5.75
2018-04-15T04:04:33.392Z,5.75
2018-04-15T04:05:33.422Z,5.79
2018-04-15T04:06:33.359Z,5.77
2018-04-15T04:07:33.335Z,5.77
2018-04-15T04:08:33.317Z,5.73
2018-04-15T04:09:33.294Z,5.73
2018-04-15T04:10:33.284Z,5.77
2018-04-15T04:11:33.308Z,5.72
2018-04-15T04:12:33.235Z,5.76
2018-04-15T04:13:33.319Z,5.76
2018-04-15T04:14:33.196Z,5.82
2018-04-15T04:15:33.178Z,5.85
2018-04-15T04:16:33.157Z,5.79
2018-04-15T04:17:33.187Z,5.75
2018-04-15T04:18:33.131Z,5.91
2018-04-15T04:19:33.097Z,5.82
2018-04-15T04:20:33.082Z,5.88
2018-04-15T04:21:33.066Z,5.87
2018-04-15T04:22:33.046Z,5.82
2018-04-15T04:23:33.389Z,5.85
2018-04-15T04:24:33.006Z,5.84
2018-04-15T04:25:32.988Z,5.93
2018-04-15T04:26:32.971Z,5.88
2018-04-15T04:27:32.951Z,5.90
2018-04-15T04:28:33.025Z,5.87
2018-04-15T04:29:33.011Z,5.90
2018-04-15T04:30:32.888Z,5.93
2018-04-15T04:31:32.866Z,5.95
2018-04-15T04:32:32.852Z,5.90
2018-04-15T04:33:32.832Z,6.00
2018-04-15T04:34:32.807Z,5.98
2018-04-15T04:35:32.837Z,5.90
2018-04-15T04:36:32.770Z,5.94
2018-04-15T04:37:32.754Z,5.98
2018-04-15T04:38:32.731Z,6.00
2018-04-15T04:39:32.711Z,6.11
2018-04-15T04:40:32.700Z,6.02
2018-04-15T04:41:32.724Z,6.02
2018-04-15T04:42:32.652Z,6.02
2018-04-15T04:43:32.632Z,6.03
2018-04-15T04:44:32.616Z,6.03
2018-04-15T04:45:32.699Z,6.13
2018-04-15T04:46:32.577Z,6.12
2018-04-15T04:47:32.610Z,6.09
2018-04-15T04:48:32.550Z,6.06
2018-04-15T04:50:32.501Z,6.13
2018-04-15T04:51:32.482Z,6.12
2018-04-15T04:52:32.458Z,6.21
2018-04-15T04:53:32.592Z,6.18
2018-04-15T04:54:32.429Z,6.18
2018-04-15T04:55:32.407Z,6.13
2018-04-15T04:56:32.380Z,6.15
2018-04-15T04:57:32.368Z,6.27
2018-04-15T04:58:32.347Z,6.31
2018-04-15T04:59:32.380Z,6.24
2018-04-15T05:00:32.306Z,6.18
2018-04-15T05:02:32.572Z,6.31
2018-04-15T05:03:32.254Z,6.30
2018-04-15T05:05:32.370Z,6.37
2018-04-15T05:06:32.546Z,6.47
2018-04-15T05:07:32.183Z,6.40
2018-04-15T05:08:32.546Z,6.45
2018-04-15T05:09:32.147Z,6.47
2018-04-15T05:10:32.218Z,6.49
2018-04-15T05:11:32.160Z,6.49
2018-04-15T05:12:32.082Z,6.61
2018-04-15T05:13:32.061Z,6.57
2018-04-15T05:14:32.047Z,6.63
2018-04-15T05:15:32.027Z,6.65
2018-04-15T05:16:32.010Z,6.65
2018-04-15T05:17:32.739Z,6.68
2018-04-15T05:18:32.103Z,6.74
2018-04-15T05:19:31.998Z,6.71
2018-04-15T05:20:31.941Z,6.73
2018-04-15T05:21:31.915Z,6.73
2018-04-15T05:23:31.878Z,6.79
2018-04-15T05:25:32.189Z,6.91
2018-04-15T05:26:31.822Z,6.92
2018-04-15T05:27:31.807Z,6.89
2018-04-15T05:28:31.785Z,6.93
2018-04-15T05:29:31.770Z,7.06
2018-04-15T05:30:33.062Z,7.04
2018-04-15T05:31:31.785Z,7.08
2018-04-15T05:32:31.711Z,7.08
2018-04-15T05:33:31.695Z,7.13
2018-04-15T05:34:31.678Z,7.13
2018-04-15T05:35:31.961Z,7.16
2018-04-15T05:36:31.641Z,7.13
2018-04-15T05:37:31.728Z,7.18
2018-04-15T05:38:31.601Z,7.22
2018-04-15T05:39:31.588Z,7.26
2018-04-15T05:40:31.795Z,7.25
2018-04-15T05:41:31.547Z,7.25
2018-04-15T05:43:31.556Z,7.28
2018-04-15T05:44:31.489Z,7.29
2018-04-15T05:45:31.478Z,7.31
2018-04-15T05:46:31.461Z,7.29
2018-04-15T05:47:31.440Z,7.34
2018-04-15T05:48:31.416Z,7.36
2018-04-15T05:49:31.445Z,7.37
2018-04-15T05:50:31.434Z,7.39
2018-04-15T05:52:31.343Z,7.52
2018-04-15T05:53:31.326Z,7.52
2018-04-15T05:54:31.403Z,7.55
2018-04-15T05:55:31.382Z,7.49
2018-04-15T05:56:31.281Z,7.57
2018-04-15T05:58:31.319Z,7.68
2018-04-15T06:01:31.250Z,7.73
2018-04-15T06:02:31.183Z,7.74
2018-04-15T06:03:31.205Z,7.71
2018-04-15T06:04:31.134Z,7.80
2018-04-15T06:05:31.228Z,7.80
2018-04-15T06:06:31.101Z,7.73
2018-04-15T06:07:31.079Z,7.81
2018-04-15T06:08:31.063Z,7.77
2018-04-15T06:09:31.199Z,7.81
2018-04-15T06:10:31.024Z,7.81
2018-04-15T06:11:31.007Z,7.88
2018-04-15T06:12:30.991Z,7.80
2018-04-15T06:13:30.973Z,7.81
2018-04-15T06:14:30.966Z,7.87
2018-04-15T06:16:30.973Z,7.88
2018-04-15T06:17:30.906Z,7.91
2018-04-15T06:18:30.988Z,8.02
2018-04-15T06:19:30.875Z,8.01
2018-04-15T06:20:30.851Z,8.05
2018-04-15T06:21:30.836Z,8.05
2018-04-15T06:22:30.893Z,8.02
2018-04-15T06:23:30.811Z,8.12
2018-04-15T06:24:30.966Z,8.16
2018-04-15T06:25:30.762Z,8.06
2018-04-15T06:26:30.745Z,8.06
2018-04-15T06:27:30.728Z,8.12
2018-04-15T06:28:30.763Z,8.14
2018-04-15T06:29:31.008Z,8.16
2018-04-15T06:30:30.672Z,8.24
2018-04-15T06:31:30.658Z,8.17
2018-04-15T06:32:30.647Z,8.14
2018-04-15T06:33:30.637Z,8.16
2018-04-15T06:34:30.723Z,8.17
2018-04-15T06:35:30.595Z,8.14
2018-04-15T06:36:30.582Z,8.20
2018-04-15T06:37:30.556Z,8.20
2018-04-15T06:38:30.539Z,8.23
2018-04-15T06:39:30.622Z,8.23
2018-04-15T06:40:30.552Z,8.34
2018-04-15T06:41:30.590Z,8.32
2018-04-15T06:42:30.565Z,8.31
2018-04-15T06:43:30.453Z,8.35
2018-04-15T06:44:30.524Z,8.37
2018-04-15T06:45:30.416Z,8.42
2018-04-15T06:46:30.451Z,8.39
2018-04-15T06:47:30.382Z,8.44
2018-04-15T06:49:30.348Z,8.34
2018-04-15T06:50:30.349Z,8.31
2018-04-15T06:51:30.315Z,8.47
2018-04-15T06:53:30.375Z,8.29
2018-04-15T06:54:30.284Z,8.44
2018-04-15T06:55:30.269Z,8.37
2018-04-15T06:56:30.250Z,8.38
2018-04-15T06:57:30.281Z,8.42
2018-04-15T06:58:30.211Z,8.34
2018-04-15T06:59:30.556Z,8.31
2018-04-15T07:02:30.495Z,8.10
2018-04-15T07:03:30.108Z,8.21
2018-04-15T07:04:31.314Z,8.19
2018-04-15T07:05:30.138Z,8.17
2018-04-15T07:06:30.055Z,8.21
2018-04-15T07:07:30.047Z,8.28
2018-04-15T07:08:30.862Z,8.28
2018-04-15T07:09:30.008Z,8.31
2018-04-15T07:10:30.004Z,8.37
2018-04-15T07:11:30.078Z,8.39
2018-04-15T07:12:29.950Z,8.41
2018-04-15T07:13:30.037Z,8.57
2018-04-15T07:14:29.933Z,8.57
2018-04-15T07:15:29.897Z,8.71
2018-04-15T07:16:29.952Z,8.72
2018-04-15T07:17:29.911Z,8.77
2018-04-15T07:18:29.855Z,8.72
2018-04-15T07:19:29.932Z,8.77
2018-04-15T07:20:29.830Z,8.93
2018-04-15T07:21:29.926Z,8.95
2018-04-15T07:22:29.786Z,9.03
2018-04-15T07:23:30.220Z,9.11
2018-04-15T07:24:29.744Z,9.11
2018-04-15T07:25:29.725Z,9.24
2018-04-15T07:27:29.797Z,9.29
2018-04-15T07:28:29.679Z,9.26
2018-04-15T07:29:29.706Z,9.37
2018-04-15T07:30:29.669Z,9.41
2018-04-15T07:31:29.615Z,9.47
2018-04-15T07:32:29.603Z,9.54
2018-04-15T07:33:29.659Z,9.62
2018-04-15T07:34:30.065Z,9.72
2018-04-15T07:35:29.608Z,9.73
2018-04-15T07:37:29.522Z,9.72
2018-04-15T07:38:29.510Z,9.77
2018-04-15T07:39:29.490Z,9.77
2018-04-15T07:40:29.472Z,9.80
2018-04-15T07:41:29.504Z,9.75
2018-04-15T07:42:29.443Z,9.88
2018-04-15T07:43:29.430Z,9.88
2018-04-15T07:44:29.409Z,9.90
2018-04-15T07:45:29.390Z,9.90
2018-04-15T07:46:29.395Z,9.88
2018-04-15T07:47:29.410Z,9.96
2018-04-15T07:48:29.344Z,9.96
2018-04-15T07:49:29.334Z,10.05
2018-04-15T07:50:29.339Z,9.93
2018-04-15T07:51:29.615Z,9.93
2018-04-15T07:52:29.393Z,10.02
2018-04-15T07:53:29.712Z,9.99
2018-04-15T07:54:29.245Z,10.03
2018-04-15T07:55:29.602Z,9.96
2018-04-15T07:56:29.226Z,10.12
2018-04-15T07:57:29.297Z,10.16
2018-04-15T07:58:29.282Z,10.09
2018-04-15T07:59:29.228Z,10.10
2018-04-15T08:01:29.448Z,10.14
2018-04-15T08:02:29.121Z,10.08
2018-04-15T08:04:29.102Z,10.12
2018-04-15T08:05:29.128Z,10.06
2018-04-15T08:06:29.067Z,10.05
2018-04-15T08:07:29.397Z,10.02
2018-04-15T08:08:29.026Z,9.96
2018-04-15T08:09:29.015Z,10.10
2018-04-15T08:10:29.025Z,10.23
2018-04-15T08:11:28.977Z,10.20
2018-04-15T08:12:29.268Z,10.20
2018-04-15T08:13:29.002Z,10.24
2018-04-15T08:14:28.938Z,10.20
2018-04-15T08:15:28.916Z,10.21
2018-04-15T08:16:28.968Z,10.36
2018-04-15T08:17:28.888Z,10.21
2018-04-15T08:19:29.212Z,10.31
2018-04-15T08:21:28.920Z,10.30
2018-04-15T08:22:28.816Z,10.39
2018-04-15T08:23:28.798Z,10.24
2018-04-15T08:24:28.842Z,10.31
2018-04-15T08:25:29.070Z,10.31
2018-04-15T08:26:29.063Z,10.31
2018-04-15T08:27:28.758Z,10.35
2018-04-15T08:30:28.751Z,10.26
2018-04-15T08:31:28.693Z,10.34
2018-04-15T08:32:28.670Z,10.34
2018-04-15T08:34:28.650Z,10.43
2018-04-15T08:35:28.650Z,10.45
2018-04-15T08:37:30.269Z,10.46
2018-04-15T08:38:28.574Z,10.28
2018-04-15T08:39:28.567Z,10.36
2018-04-15T08:40:28.542Z,10.31
2018-04-15T08:41:28.531Z,10.24
2018-04-15T08:42:28.513Z,10.21
2018-04-15T08:44:28.831Z,10.17
2018-04-15T08:46:28.452Z,10.23
2018-04-15T08:47:28.433Z,10.34
2018-04-15T08:48:28.424Z,10.38
2018-04-15T08:49:28.407Z,10.39
2018-04-15T08:50:28.544Z,10.49
2018-04-15T08:51:28.423Z,10.52
2018-04-15T08:52:28.358Z,10.49
2018-04-15T08:53:28.350Z,10.54
2018-04-15T08:54:28.338Z,10.65
2018-04-15T08:55:28.308Z,10.58
2018-04-15T08:56:28.311Z,10.64
2018-04-15T08:57:28.338Z,10.62
2018-04-15T08:59:28.255Z,10.62
2018-04-15T09:00:28.238Z,10.61
2018-04-15T09:01:28.224Z,10.70
2018-04-15T09:02:28.205Z,10.73
2018-04-15T09:04:28.307Z,10.82
2018-04-15T09:05:28.186Z,10.82
2018-04-15T09:06:28.149Z,10.75
2018-04-15T09:07:28.133Z,10.78
2018-04-15T09:08:28.213Z,10.76
2018-04-15T09:09:28.408Z,10.82
2018-04-15T09:11:28.120Z,10.78
2018-04-15T09:12:28.058Z,10.75
2018-04-15T09:13:28.053Z,10.80
2018-04-15T09:14:28.349Z,10.78
2018-04-15T09:15:28.015Z,10.86
2018-04-15T09:18:28.026Z,10.90
2018-04-15T09:19:27.952Z,10.86
2018-04-15T09:20:27.936Z,10.85
2018-04-15T09:22:28.015Z,10.78
2018-04-15T09:23:27.948Z,10.80
2018-04-15T09:24:27.877Z,10.93
2018-04-15T09:25:28.012Z,10.86
2018-04-15T09:26:28.165Z,11.01
2018-04-15T09:27:27.829Z,10.90
2018-04-15T09:28:27.883Z,10.86
2018-04-15T09:29:27.955Z,10.97
2018-04-15T09:30:27.780Z,10.95
2018-04-15T09:31:27.794Z,11.01
2018-04-15T09:33:28.374Z,11.15
2018-04-15T09:35:27.817Z,11.15
2018-04-15T09:36:27.910Z,11.13
2018-04-15T09:37:27.686Z,11.18
2018-04-15T09:38:27.671Z,11.15
2018-04-15T09:39:27.974Z,11.15
2018-04-15T09:40:27.648Z,11.15
2018-04-15T09:41:27.846Z,11.15
2018-04-15T09:42:27.680Z,11.18
2018-04-15T09:43:27.607Z,11.15
2018-04-15T09:44:27.591Z,11.16
2018-04-15T09:45:27.574Z,11.20
2018-04-15T09:46:27.608Z,11.18
2018-04-15T09:47:28.847Z,11.18
2018-04-15T09:48:27.522Z,11.13
2018-04-15T09:49:27.510Z,11.11
2018-04-15T09:50:27.718Z,11.22
2018-04-15T09:51:30.819Z,11.30
2018-04-15T09:52:28.239Z,11.33
2018-04-15T09:53:28.869Z,11.34
2018-04-15T09:54:27.442Z,11.36
2018-04-15T09:55:27.420Z,11.37
2018-04-15T09:57:27.715Z,11.37
2018-04-15T09:58:27.384Z,11.34
2018-04-15T09:59:27.424Z,11.37
2018-04-15T10:00:27.375Z,11.38
2018-04-15T10:01:27.340Z,11.33
2018-04-15T10:03:27.615Z,11.52
2018-04-15T10:05:28.544Z,11.43
2018-04-15T10:06:27.420Z,11.43
2018-04-15T10:07:27.573Z,11.41
2018-04-15T10:08:27.240Z,11.34
2018-04-15T10:10:27.521Z,11.52
2018-04-15T10:11:27.409Z,11.55
2018-04-15T10:13:27.374Z,11.79
2018-04-15T10:14:27.205Z,11.80
2018-04-15T10:15:27.342Z,11.89
2018-04-15T10:16:27.689Z,12.07
2018-04-15T10:17:27.266Z,12.05
2018-04-15T10:18:27.096Z,12.08
2018-04-15T10:19:27.294Z,12.23
2018-04-15T10:20:27.310Z,12.25
2018-04-15T10:21:27.066Z,12.28
2018-04-15T10:22:27.095Z,12.38
2018-04-15T10:23:27.034Z,12.33
2018-04-15T10:24:27.374Z,12.47
2018-04-15T10:25:27.008Z,12.44
2018-04-15T10:26:27.278Z,12.61
2018-04-15T10:27:26.980Z,12.41
2018-04-15T10:28:27.016Z,12.33
2018-04-15T10:29:26.955Z,12.44
2018-04-15T10:30:26.990Z,12.38
2018-04-15T10:32:26.915Z,12.47
2018-04-15T10:33:27.202Z,12.48
2018-04-15T10:35:26.891Z,12.51
2018-04-15T10:36:26.913Z,12.58
2018-04-15T10:37:26.850Z,12.61
2018-04-15T10:38:26.838Z,12.51
2018-04-15T10:39:26.828Z,12.50
2018-04-15T10:40:26.820Z,12.48
2018-04-15T10:41:26.801Z,12.47
2018-04-15T10:42:26.840Z,12.25
2018-04-15T10:43:26.783Z,12.33
2018-04-15T10:44:27.072Z,12.43
2018-04-15T10:45:26.747Z,12.43
2018-04-15T10:46:26.740Z,12.28
2018-04-15T10:47:26.738Z,12.55
2018-04-15T10:48:26.781Z,12.51
2018-04-15T10:49:26.712Z,12.50
2018-04-15T10:50:26.692Z,12.69
2018-04-15T10:51:26.682Z,12.76
2018-04-15T10:52:26.673Z,12.71
2018-04-15T10:53:26.653Z,12.76
2018-04-15T10:54:26.689Z,12.80
2018-04-15T10:55:26.628Z,12.87
2018-04-15T10:56:26.921Z,12.88
2018-04-15T10:57:26.646Z,12.81
2018-04-15T10:58:26.601Z,12.65
2018-04-15T10:59:26.593Z,12.59
2018-04-15T11:00:26.618Z,12.63
2018-04-15T11:01:26.562Z,12.69
2018-04-15T11:03:26.839Z,12.58
2018-04-15T11:04:26.582Z,12.69
2018-04-15T11:06:26.555Z,12.71
2018-04-15T11:07:26.497Z,12.72
2018-04-15T11:09:26.762Z,12.77
2018-04-15T11:10:26.550Z,12.76
2018-04-15T11:11:26.437Z,12.86
2018-04-15T11:12:26.484Z,13.05
2018-04-15T11:13:26.417Z,13.30
2018-04-15T11:14:26.703Z,13.14
2018-04-15T11:15:26.715Z,13.09
2018-04-15T11:16:26.383Z,12.98
2018-04-15T11:18:26.454Z,13.09
2018-04-15T11:19:26.339Z,13.17
2018-04-15T11:20:26.329Z,13.13
2018-04-15T11:21:26.345Z,13.09
2018-04-15T11:22:26.310Z,13.24
2018-04-15T11:23:26.329Z,13.27
2018-04-15T11:24:26.433Z,13.35
2018-04-15T11:25:26.272Z,13.43
2018-04-15T11:26:26.257Z,13.42
2018-04-15T11:28:26.545Z,13.54
2018-04-15T11:29:26.222Z,13.64
2018-04-15T11:30:26.260Z,13.91
2018-04-15T11:31:26.201Z,13.93
2018-04-15T11:32:26.237Z,13.80
2018-04-15T11:33:26.190Z,13.86
2018-04-15T11:34:26.228Z,13.96
2018-04-15T11:35:26.161Z,14.03
2018-04-15T11:36:26.149Z,13.94
2018-04-15T11:38:26.155Z,14.03
2018-04-15T11:39:26.123Z,14.16
2018-04-15T11:40:26.450Z,14.03
2018-04-15T11:41:26.092Z,13.94
2018-04-15T11:42:26.339Z,13.63
2018-04-15T11:43:26.065Z,13.64
2018-04-15T11:44:26.058Z,13.53
2018-04-15T11:48:26.365Z,13.55
2018-04-15T11:49:26.281Z,13.63
2018-04-15T11:50:26.342Z,13.85
2018-04-15T11:51:26.227Z,14.12
2018-04-15T11:52:26.422Z,14.46
2018-04-15T11:53:26.250Z,14.63
2018-04-15T11:54:26.018Z,14.67
2018-04-15T11:55:25.943Z,14.78
2018-04-15T11:56:25.937Z,14.73
2018-04-15T11:57:26.128Z,14.93
2018-04-15T11:58:25.909Z,14.96
2018-04-15T11:59:25.901Z,14.96
2018-04-15T12:00:27.144Z,14.64
2018-04-15T12:01:25.877Z,14.63
2018-04-15T12:02:26.070Z,14.44
2018-04-15T12:03:25.862Z,14.44
2018-04-15T12:05:26.143Z,14.23
2018-04-15T12:06:25.884Z,14.12
2018-04-15T12:07:25.828Z,14.11
2018-04-15T12:08:25.813Z,14.15
2018-04-15T12:09:25.799Z,14.27
2018-04-15T12:10:25.793Z,14.21
2018-04-15T12:12:26.165Z,14.19
2018-04-15T12:13:26.113Z,14.15
2018-04-15T12:14:25.759Z,14.36
2018-04-15T12:15:25.745Z,14.30
2018-04-15T12:16:25.738Z,14.45
2018-04-15T12:17:25.820Z,14.44
2018-04-15T12:18:25.832Z,14.33
2018-04-15T12:19:26.305Z,14.48
2018-04-15T12:22:25.883Z,14.66
2018-04-15T12:23:25.671Z,14.69
2018-04-15T12:25:26.046Z,14.90
2018-04-15T12:26:25.653Z,14.83
2018-04-15T12:27:25.627Z,14.77
2018-04-15T12:28:25.615Z,14.70
2018-04-15T12:30:25.601Z,14.89
2018-04-15T12:31:25.633Z,14.71
2018-04-15T12:32:25.670Z,14.51
2018-04-15T12:33:25.563Z,14.49
2018-04-15T12:34:25.551Z,14.56
2018-04-15T12:35:25.552Z,14.59
2018-04-15T12:36:25.532Z,14.74
2018-04-15T12:38:25.915Z,14.73
2018-04-15T12:40:25.490Z,14.93
2018-04-15T12:41:25.535Z,14.95
2018-04-15T12:42:25.471Z,14.86
2018-04-15T12:43:25.462Z,14.77
2018-04-15T12:44:25.455Z,14.73
2018-04-15T12:45:25.442Z,14.89
2018-04-15T12:46:25.671Z,14.83
2018-04-15T12:47:25.479Z,14.78
2018-04-15T12:48:25.536Z,14.77
2018-04-15T12:50:25.395Z,14.77
2018-04-15T12:51:25.382Z,14.90
2018-04-15T12:52:25.578Z,14.97
2018-04-15T12:54:25.770Z,14.78
2018-04-15T12:56:25.651Z,14.85
2018-04-15T12:57:25.373Z,14.97
2018-04-15T12:58:25.312Z,14.93
2018-04-15T12:59:25.330Z,15.08
2018-04-15T13:00:25.446Z,15.20
2018-04-15T13:01:25.303Z,15.33
2018-04-15T13:02:25.572Z,15.40
2018-04-15T13:03:25.465Z,15.40
2018-04-15T13:04:25.317Z,15.33
2018-04-15T13:05:25.246Z,15.41
2018-04-15T13:06:25.494Z,15.45
2018-04-15T13:07:25.451Z,15.29
2018-04-15T13:08:25.669Z,15.29
2018-04-15T13:09:25.211Z,15.32
2018-04-15T13:12:25.381Z,15.05
2018-04-15T13:13:25.174Z,15.05
2018-04-15T13:14:25.518Z,15.27
2018-04-15T13:16:25.439Z,15.44
2018-04-15T13:17:25.128Z,15.50
2018-04-15T13:18:25.313Z,15.58
2018-04-15T13:19:25.117Z,15.63
2018-04-15T13:20:25.158Z,15.48
2018-04-15T13:21:25.090Z,15.56
2018-04-15T13:22:25.076Z,15.72
2018-04-15T13:23:25.071Z,15.72
2018-04-15T13:25:25.053Z,15.45
2018-04-15T13:27:25.038Z,15.69
2018-04-15T13:29:25.022Z,16.02
2018-04-15T13:31:24.991Z,16.42
2018-04-15T13:32:25.334Z,16.65
2018-04-15T13:33:24.976Z,16.65
2018-04-15T13:34:24.973Z,16.72
2018-04-15T13:35:24.961Z,16.73
2018-04-15T13:36:24.954Z,16.84
2018-04-15T13:37:25.285Z,16.91
2018-04-15T13:38:25.226Z,16.87
2018-04-15T13:39:24.935Z,16.64
2018-04-15T13:40:24.921Z,16.80
2018-04-15T13:42:24.895Z,16.67
2018-04-15T13:43:24.932Z,16.57
2018-04-15T13:46:25.174Z,16.88
2018-04-15T13:47:24.846Z,16.83
2018-04-15T13:48:24.888Z,16.72
2018-04-15T13:49:24.889Z,16.70
2018-04-15T13:50:24.878Z,16.83
2018-04-15T13:51:24.824Z,16.82
2018-04-15T13:52:25.126Z,16.74
2018-04-15T13:53:24.951Z,16.51
2018-04-15T13:54:24.894Z,16.76
2018-04-15T13:55:24.786Z,16.91
2018-04-15T13:56:24.831Z,16.80
2018-04-15T13:57:24.765Z,16.87
2018-04-15T13:58:24.756Z,17.04
2018-04-15T13:59:24.747Z,17.07
2018-04-15T14:00:24.812Z,17.38
2018-04-15T14:01:24.734Z,17.45
2018-04-15T14:03:25.075Z,17.54
2018-04-15T14:06:24.996Z,17.43
2018-04-15T14:07:24.744Z,17.46
2018-04-15T14:08:24.676Z,17.57
2018-04-15T14:09:24.722Z,18.23
2018-04-15T14:10:24.668Z,19.24
2018-04-15T14:11:24.664Z,19.74
2018-04-15T14:12:24.994Z,19.75
2018-04-15T14:13:24.638Z,19.32
2018-04-15T14:14:25.092Z,20.07
2018-04-15T14:15:24.624Z,20.30
2018-04-15T14:16:24.628Z,20.75
2018-04-15T14:17:24.609Z,20.83
2018-04-15T14:18:24.850Z,20.42
2018-04-15T14:19:24.600Z,20.08
2018-04-15T14:20:24.640Z,19.24
2018-04-15T14:21:24.595Z,19.01
2018-04-15T14:22:24.605Z,19.24
2018-04-15T14:23:24.589Z,19.92
2018-04-15T14:24:24.572Z,20.41
2018-04-15T14:25:24.918Z,20.42
2018-04-15T14:26:24.665Z,20.46
2018-04-15T14:27:24.613Z,20.26
2018-04-15T14:28:24.553Z,19.54
2018-04-15T14:29:24.751Z,19.26